Time;durP1;ratioP1;P1;durP2;ratioP2;P2;SDS_P1;SDS_P2;PMS_P1;PMS_P2;Temp;Humidity;BMP_temperature;BMP_pressure;BME280_temperature;BME280_humidity;BME280_pressure;Samples;Min_cycle;Max_cycle;Signal;HPM_P1;HPM_P2
2022/06/15 00:00:42;;;;;;;9.07;4.63;;;;;;;10.97;100.00;101729.13;5064088;28;20032;-76
2022/06/15 00:03:09;;;;;;;8.20;4.18;;;;;;;10.95;100.00;101715.06;5047804;28;20021;-76
2022/06/15 00:05:34;;;;;;;;;;;;;;;11.01;100.00;101720.84;5065276;28;20036;-75
2022/06/15 00:08:00;;;;;;;5.75;3.40;;;;;;;11.02;100.00;101725.19;5065719;28;20003;-76
2022/06/15 00:10:25;;;;;;;8.67;4.83;;;;;;;10.99;100.00;101721.81;5062694;28;20074;-75
2022/06/15 00:12:51;;;;;;;10.20;3.73;;;;;;;11.04;100.00;101723.22;5060979;28;20163;-76
2022/06/15 00:15:16;;;;;;;11.43;3.83;;;;;;;11.03;100.00;101717.03;5077464;28;20388;-75
2022/06/15 00:17:42;;;;;;;11.30;5.53;;;;;;;11.03;100.00;101710.81;5065472;28;20035;-76
2022/06/15 00:20:08;;;;;;;13.47;5.53;;;;;;;11.05;100.00;101715.06;5063813;28;20351;-75
2022/06/15 00:22:33;;;;;;;8.00;4.10;;;;;;;11.04;100.00;101715.19;5065678;28;20051;-75
2022/06/15 00:24:59;;;;;;;10.90;3.63;;;;;;;11.04;100.00;101712.53;5064156;28;20139;-76
2022/06/15 00:27:24;;;;;;;13.93;4.80;;;;;;;10.97;100.00;101705.06;5065345;28;20028;-75
2022/06/15 00:29:50;;;;;;;9.57;4.20;;;;;;;10.89;100.00;101698.78;5047058;28;20112;-75
2022/06/15 00:32:15;;;;;;;11.83;5.00;;;;;;;10.94;100.00;101702.69;5063862;28;20024;-76
2022/06/15 00:34:40;;;;;;;11.13;4.80;;;;;;;10.92;100.00;101701.97;5047701;28;20056;-75
2022/06/15 00:37:06;;;;;;;14.27;5.73;;;;;;;10.81;100.00;101690.59;5065446;28;20471;-75
2022/06/15 00:39:33;;;;;;;10.57;5.47;;;;;;;10.77;100.00;101701.56;5063783;28;20040;-75
2022/06/15 00:41:59;;;;;;;11.80;4.13;;;;;;;10.91;100.00;101713.66;5064773;28;20020;-76
2022/06/15 00:44:25;;;;;;;18.73;4.72;;;;;;;10.80;100.00;101708.47;5063899;28;20416;-75
2022/06/15 00:46:59;;;;;;;12.18;4.00;;;;;;;10.69;100.00;101704.09;5046821;28;20056;-75
2022/06/15 00:49:30;;;;;;;8.18;3.88;;;;;;;10.61;100.00;101700.44;5065041;28;20477;-76
2022/06/15 00:51:59;;;;;;;7.30;3.72;;;;;;;10.60;100.00;101696.06;5065025;28;20366;-75
2022/06/15 00:54:26;;;;;;;8.30;4.05;;;;;;;10.45;100.00;101698.31;5063522;28;20127;-75
2022/06/15 00:56:53;;;;;;;7.90;4.43;;;;;;;10.48;100.00;101706.03;5063601;28;20036;-75
2022/06/15 00:59:42;;;;;;;9.32;4.43;;;;;;;10.34;100.00;101699.28;5046954;28;20036;-76
2022/06/15 01:02:08;;;;;;;6.80;3.70;;;;;;;10.28;100.00;101690.00;5063413;28;20028;-75
2022/06/15 01:04:40;;;;;;;7.67;5.07;;;;;;;10.26;100.00;101693.75;5063832;28;20031;-75
2022/06/15 01:07:42;;;;;;;11.02;4.70;;;;;;;10.18;100.00;101677.56;5063259;28;20358;-76
2022/06/15 01:10:22;;;;;;;12.10;4.57;;;;;;;10.13;100.00;101681.50;5039108;28;20504;-75
2022/06/15 01:13:26;;;;;;;11.32;4.35;;;;;;;10.17;100.00;101689.25;5057926;28;20033;-76
2022/06/15 01:16:10;;;;;;;10.70;4.95;;;;;;;10.22;100.00;101705.69;5063424;28;20032;-76
2022/06/15 01:18:49;;;;;;;7.75;3.92;;;;;;;10.13;100.00;101702.84;5079548;28;20036;-75
2022/06/15 01:21:56;;;;;;;10.50;4.70;;;;;;;10.10;100.00;101702.28;5063304;28;20062;-76
2022/06/15 01:24:54;;;;;;;12.80;5.28;;;;;;;10.05;100.00;101693.84;5010507;28;20141;-75
2022/06/15 01:27:32;;;;;;;8.70;4.95;;;;;;;10.01;100.00;101703.94;5052407;28;20052;-75
2022/06/15 01:30:11;;;;;;;12.77;5.07;;;;;;;10.01;100.00;101698.59;5060812;28;20025;-75
2022/06/15 01:32:52;;;;;;;8.27;4.45;;;;;;;9.98;100.00;101696.22;5060047;28;20025;-75
2022/06/15 01:35:34;;;;;;;12.10;4.75;;;;;;;9.93;100.00;101683.28;5067340;28;20123;-75
2022/06/15 01:38:19;;;;;;;10.63;4.45;;;;;;;9.90;100.00;101691.56;5050979;28;20028;-75
2022/06/15 01:40:49;;;;;;;10.98;4.50;;;;;;;9.81;100.00;101691.50;5074050;28;20035;-75
2022/06/15 01:43:22;;;;;;;12.55;4.60;;;;;;;9.81;100.00;101696.81;5078939;28;20037;-75
2022/06/15 01:45:50;;;;;;;7.85;4.45;;;;;;;9.75;100.00;101686.72;5058393;28;20136;-75
2022/06/15 01:48:17;;;;;;;8.10;4.38;;;;;;;9.67;100.00;101682.91;5049868;28;20399;-76
2022/06/15 01:50:49;;;;;;;9.25;4.72;;;;;;;9.67;100.00;101696.22;5060119;28;20040;-76
2022/06/15 01:53:26;;;;;;;9.70;4.75;;;;;;;9.64;100.00;101685.81;5066720;28;20036;-75
2022/06/15 01:55:55;;;;;;;;;;;;;;;9.64;100.00;101696.47;5050677;28;20169;-75
2022/06/15 01:58:25;;;;;;;11.25;5.22;;;;;;;9.57;100.00;101679.31;5083711;28;19908;-75
2022/06/15 02:00:59;;;;;;;11.52;5.35;;;;;;;9.58;100.00;101673.03;5049540;28;20435;-76
2022/06/15 02:03:45;;;;;;;12.57;6.53;;;;;;;9.60;100.00;101679.06;5050165;28;20259;-75
2022/06/15 02:06:25;;;;;;;;;;;;;;;9.52;100.00;101670.88;5067247;28;20465;-76
2022/06/15 02:08:57;;;;;;;13.25;4.55;;;;;;;9.47;100.00;101665.13;5062930;28;19952;-75
2022/06/15 02:11:35;;;;;;;11.15;4.53;;;;;;;9.43;100.00;101682.34;5066148;28;20040;-75
2022/06/15 02:14:26;;;;;;;12.25;5.65;;;;;;;9.40;100.00;101671.94;5050468;28;20040;-75
2022/06/15 02:16:59;;;;;;;6.88;4.45;;;;;;;9.35;100.00;101663.50;5066638;28;20485;-76
2022/06/15 02:19:41;;;;;;;8.98;3.97;;;;;;;9.30;100.00;101667.41;5066257;28;20334;-75
2022/06/15 02:22:12;;;;;;;10.98;4.88;;;;;;;9.27;100.00;101666.81;5066316;28;20028;-75
2022/06/15 02:24:39;;;;;;;5.30;4.15;;;;;;;9.20;100.00;101661.19;5066509;28;20251;-75
2022/06/15 02:27:07;;;;;;;10.98;4.93;;;;;;;9.19;100.00;101656.81;5066559;28;20028;-76
2022/06/15 02:29:37;;;;;;;9.65;5.13;;;;;;;9.16;100.00;101665.09;5066379;28;20035;-75
2022/06/15 02:32:07;;;;;;;9.30;4.43;;;;;;;9.07;100.00;101645.41;5049467;28;20021;-76
2022/06/15 02:34:33;;;;;;;8.98;5.00;;;;;;;9.14;100.00;101655.53;5065102;28;20032;-76
2022/06/15 02:36:58;;;;;;;9.37;5.17;;;;;;;9.04;100.00;101640.34;5066055;28;20091;-76
2022/06/15 02:39:23;;;;;;;7.10;5.03;;;;;;;9.03;100.00;101651.13;5066251;28;20477;-76
2022/06/15 02:42:03;;;;;;;7.38;4.50;;;;;;;9.02;100.00;101657.44;5049539;28;20028;-75
2022/06/15 02:44:33;;;;;;;10.43;4.78;;;;;;;9.03;100.00;101651.13;5047799;28;20028;-76
2022/06/15 02:46:59;;;;;;;10.95;5.00;;;;;;;9.02;100.00;101646.78;5065959;28;20032;-76
2022/06/15 02:49:25;;;;;;;7.35;3.83;;;;;;;9.01;100.00;101650.41;5066074;28;20066;-76
2022/06/15 02:51:57;;;;;;;10.90;4.68;;;;;;;8.99;100.00;101652.34;5067192;28;20028;-75
2022/06/15 02:54:31;;;;;;;10.35;4.45;;;;;;;8.96;100.00;101652.59;5065500;28;20032;-76
2022/06/15 02:57:06;;;;;;;7.70;4.10;;;;;;;8.96;100.00;101647.28;5047727;28;20116;-76
2022/06/15 02:59:32;;;;;;;8.48;4.82;;;;;;;8.96;100.00;101644.63;5049258;28;20032;-76
2022/06/15 03:01:59;;;;;;;6.70;4.72;;;;;;;8.94;100.00;101646.56;5049185;28;20025;-75
2022/06/15 03:04:26;;;;;;;7.80;5.30;;;;;;;8.95;100.00;101650.94;5065902;28;20377;-76
2022/06/15 03:06:51;;;;;;;10.33;4.53;;;;;;;8.96;100.00;101657.94;5049315;28;20023;-76
2022/06/15 03:09:18;;;;;;;;;;;;;;;8.99;100.00;101658.53;5065982;28;20047;-76
2022/06/15 03:11:49;;;;;;;8.48;5.28;;;;;;;9.01;100.00;101659.25;5044977;28;19995;-76
2022/06/15 03:14:33;;;;;;;12.20;5.90;;;;;;;9.06;100.00;101665.03;5074692;28;20024;-76
2022/06/15 03:16:59;;;;;;;8.98;5.60;;;;;;;9.12;100.00;101676.97;5046553;28;20105;-75
2022/06/15 03:19:31;;;;;;;11.60;6.03;;;;;;;9.20;100.00;101678.97;5048394;28;20023;-76
2022/06/15 03:22:00;;;;;;;11.40;5.78;;;;;;;9.28;100.00;101687.19;5066168;28;20028;-75
2022/06/15 03:24:26;;;;;;;18.23;7.05;;;;;;;9.29;100.00;101695.06;5049159;28;20023;-75
2022/06/15 03:26:52;;;;;;;;;;;;;;;9.40;100.00;101699.44;5066970;28;20134;-76
2022/06/15 03:29:21;;;;;;;11.05;5.80;;;;;;;9.43;100.00;101698.34;5066180;28;19916;-75
2022/06/15 03:31:50;;;;;;;14.93;6.10;;;;;;;9.48;100.00;101701.44;5065764;28;20103;-75
2022/06/15 03:34:16;;;;;;;10.40;6.07;;;;;;;9.60;100.00;101700.41;5066156;28;20490;-75
2022/06/15 03:36:42;;;;;;;11.95;6.05;;;;;;;9.69;100.00;101704.06;5066434;28;20081;-75
2022/06/15 03:39:08;;;;;;;12.70;6.03;;;;;;;9.72;100.00;101706.50;5066019;28;20017;-75
2022/06/15 03:41:37;;;;;;;13.00;6.85;;;;;;;9.74;100.00;101691.22;5065809;28;20024;-76
2022/06/15 03:44:04;;;;;;;11.68;6.82;;;;;;;9.92;100.00;101707.41;5049415;28;20520;-74
2022/06/15 03:46:29;;;;;;;17.35;8.45;;;;;;;10.00;100.00;101699.59;5048904;28;20036;-75
2022/06/15 03:49:03;;;;;;;16.52;7.82;;;;;;;10.12;100.00;101694.97;5065366;28;20569;-76
2022/06/15 03:51:29;;;;;;;15.27;7.80;;;;;;;10.25;100.00;101700.06;5056995;28;20566;-76
2022/06/15 03:54:00;;;;;;;13.48;6.90;;;;;;;10.43;100.00;101714.47;5065930;28;20020;-76
2022/06/15 03:56:46;;;;;;;17.00;7.87;;;;;;;10.47;100.00;101705.19;5049177;28;20481;-76
2022/06/15 03:59:16;;;;;;;13.70;8.20;;;;;;;10.56;100.00;101704.38;5049791;28;20281;-75
2022/06/15 04:01:45;;;;;;;17.33;7.80;;;;;;;10.67;100.00;101705.22;5049160;28;20063;-75
2022/06/15 04:04:12;;;;;;;15.32;7.72;;;;;;;10.74;100.00;101701.00;5065590;28;20034;-76
2022/06/15 04:06:38;;;;;;;;;;;;;;;10.87;100.00;101706.91;5066352;28;20533;-76
2022/06/15 04:09:05;;;;;;;14.45;6.95;;;;;;;10.88;100.00;101697.06;5065534;28;20409;-76
2022/06/15 04:14:29;;;;;;;19.40;7.97;;;;;;;11.09;100.00;101702.25;5065431;28;20200;-75
2022/06/15 04:17:21;;;;;;;11.07;6.28;;;;;;;11.20;100.00;101702.94;5060429;28;20043;-75
2022/06/15 04:22:48;;;;;;;20.98;7.55;;;;;;;11.49;100.00;101706.53;5059230;28;20021;-76
2022/06/15 04:25:13;;;;;;;16.97;8.23;;;;;;;11.46;100.00;101704.16;5048576;28;20396;-75
2022/06/15 04:27:39;;;;;;;17.38;9.35;;;;;;;11.59;100.00;101702.00;5065178;28;20047;-75
2022/06/15 04:30:11;;;;;;;16.63;8.45;;;;;;;11.73;100.00;101704.22;5065293;28;20044;-78
2022/06/15 04:32:39;;;;;;;14.18;6.80;;;;;;;11.88;100.00;101691.22;5065192;28;20497;-75
2022/06/15 04:35:07;;;;;;;18.75;8.88;;;;;;;12.06;100.00;101699.31;5045846;28;20112;-75
2022/06/15 04:37:37;;;;;;;13.07;7.25;;;;;;;12.16;100.00;101694.72;5048533;28;20051;-75
2022/06/15 04:40:12;;;;;;;14.35;6.88;;;;;;;12.23;100.00;101690.47;5064174;28;20035;-75
2022/06/15 04:42:39;;;;;;;14.63;6.45;;;;;;;12.41;100.00;101697.69;5064812;28;20029;-77
2022/06/15 04:45:05;;;;;;;17.60;6.90;;;;;;;12.50;100.00;101691.41;5048587;28;20017;-76
2022/06/15 04:47:35;;;;;;;10.32;6.28;;;;;;;12.57;100.00;101679.13;5063858;28;20036;-75
2022/06/15 04:50:02;;;;;;;25.30;9.07;;;;;;;12.53;100.00;101674.22;5064076;28;20035;-75
2022/06/15 04:52:34;;;;;;;17.60;7.47;;;;;;;12.46;100.00;101669.44;5062838;28;20025;-75
2022/06/15 04:54:59;;;;;;;15.67;7.87;;;;;;;12.64;100.00;101676.63;5041669;28;20052;-76
2022/06/15 04:57:24;;;;;;;15.83;7.63;;;;;;;12.80;100.00;101671.44;5050847;28;20016;-75
2022/06/15 04:59:51;;;;;;;14.35;7.00;;;;;;;12.83;100.00;101664.91;5064314;28;20374;-75
2022/06/15 05:02:16;;;;;;;11.67;5.97;;;;;;;13.00;100.00;101666.75;5062248;28;20034;-77
2022/06/15 05:04:42;;;;;;;12.27;6.93;;;;;;;13.06;100.00;101666.13;5064058;28;20032;-75
2022/06/15 05:07:11;;;;;;;17.23;6.82;;;;;;;13.09;100.00;101668.50;5047855;28;20028;-75
2022/06/15 05:09:38;;;;;;;15.55;6.32;;;;;;;13.27;100.00;101656.84;5063746;28;20032;-78
2022/06/15 05:12:04;;;;;;;;;;;;;;;13.16;100.00;101662.47;5047684;28;20043;-76
2022/06/15 05:14:30;;;;;;;;;;;;;;;13.29;100.00;101665.63;5047913;28;20381;-75
2022/06/15 05:16:55;;;;;;;13.77;5.80;;;;;;;13.49;100.00;101664.41;5063808;28;19913;-76
2022/06/15 05:19:26;;;;;;;11.48;6.68;;;;;;;13.72;100.00;101666.56;5062435;28;20050;-75
2022/06/15 05:21:51;;;;;;;13.93;6.47;;;;;;;13.80;100.00;101650.47;5047524;28;20111;-76
2022/06/15 05:24:18;;;;;;;13.20;6.55;;;;;;;13.96;100.00;101651.53;5048251;28;20025;-78
2022/06/15 05:26:49;;;;;;;13.38;6.57;;;;;;;14.09;100.00;101652.78;5065178;28;20115;-76
2022/06/15 05:29:15;;;;;;;11.13;5.75;;;;;;;14.19;100.00;101647.25;5064690;28;20124;-76
2022/06/15 05:31:42;;;;;;;15.02;7.07;;;;;;;14.25;100.00;101640.38;5047008;28;20478;-77
2022/06/15 05:34:08;;;;;;;14.65;6.53;;;;;;;14.47;100.00;101625.44;5046877;28;20063;-76
2022/06/15 05:36:35;;;;;;;9.90;5.47;;;;;;;14.68;100.00;101631.22;5047544;28;20119;-76
2022/06/15 05:39:05;;;;;;;15.20;6.45;;;;;;;14.54;100.00;101618.47;5064490;28;20043;-75
2022/06/15 05:41:34;;;;;;;11.75;6.18;;;;;;;14.71;100.00;101624.66;5071998;28;20032;-77
2022/06/15 05:45:02;;;;;;;13.82;5.68;;;;;;;14.82;100.00;101616.25;5063603;28;20021;-76
2022/06/15 05:47:00;;;;;;;17.88;6.25;;;;;;;14.85;100.00;101605.16;5067961;28;20152;-76
2022/06/15 05:49:37;;;;;;;12.57;6.00;;;;;;;15.23;100.00;101607.28;5047734;28;20401;-76
2022/06/15 05:52:05;;;;;;;10.70;5.60;;;;;;;14.90;100.00;101586.66;5046401;28;20549;-76
2022/06/15 05:54:33;;;;;;;7.18;5.05;;;;;;;15.06;100.00;101585.81;5063193;28;20444;-75
2022/06/15 05:56:59;;;;;;;15.03;5.60;;;;;;;15.46;100.00;101597.47;5063226;28;20033;-76
2022/06/15 05:59:24;;;;;;;11.60;6.17;;;;;;;15.45;100.00;101576.91;5062923;28;20054;-76
2022/06/15 06:01:50;;;;;;;11.77;4.80;;;;;;;15.81;100.00;101580.00;5063522;28;20082;-76
2022/06/15 06:04:17;;;;;;;13.60;5.07;;;;;;;16.04;100.00;101536.94;5064191;28;20127;-77
2022/06/15 06:06:43;;;;;;;10.52;3.85;;;;;;;16.06;100.00;101511.66;5058897;28;20096;-76
2022/06/15 06:09:10;;;;;;;8.43;4.47;;;;;;;16.25;100.00;101533.59;5063988;28;20044;-75
2022/06/15 06:11:36;;;;;;;8.15;4.20;;;;;;;16.61;100.00;101514.06;5063556;28;20282;-76
2022/06/15 06:14:02;;;;;;;10.70;3.55;;;;;;;17.04;100.00;101462.19;5067129;28;20025;-76
2022/06/15 06:16:27;;;;;;;11.85;4.32;;;;;;;17.17;100.00;101399.50;5050877;28;20443;-75
2022/06/15 06:18:52;;;;;;;6.77;3.43;;;;;;;17.19;100.00;101395.56;5067576;28;20896;-75
2022/06/15 06:21:18;;;;;;;7.27;4.13;;;;;;;16.66;100.00;101373.31;5066948;28;20040;-75
2022/06/15 06:23:44;;;;;;;13.82;4.63;;;;;;;17.06;100.00;101420.53;5068732;28;20756;-75
2022/06/15 06:26:24;;;;;;;9.05;3.75;;;;;;;17.21;100.00;101338.72;5050966;28;20081;-75
2022/06/15 06:28:50;;;;;;;8.65;4.32;;;;;;;17.27;100.00;101311.78;5067242;28;20028;-75
2022/06/15 06:31:16;;;;;;;9.20;3.70;;;;;;;17.50;100.00;101305.34;5066749;28;20394;-76
2022/06/15 06:33:41;;;;;;;;;;;;;;;17.51;100.00;101253.03;5068571;28;20073;-75
2022/06/15 06:36:13;;;;;;;;;;;;;;;17.02;100.00;101305.09;5068587;28;19908;-75
2022/06/15 06:38:38;;;;;;;4.88;3.58;;;;;;;16.96;100.00;101362.53;5067784;28;19916;-76
2022/06/15 06:41:04;;;;;;;7.23;3.87;;;;;;;16.67;100.00;101364.22;5066254;28;20020;-76
2022/06/15 06:43:29;;;;;;;10.52;3.72;;;;;;;16.35;100.00;101366.25;5068249;28;20024;-75
2022/06/15 06:45:55;;;;;;;10.60;3.87;;;;;;;16.23;100.00;101443.19;5068222;28;20028;-75
2022/06/15 06:48:21;;;;;;;13.20;4.23;;;;;;;16.92;100.00;101474.50;5056980;28;20033;-75
2022/06/15 06:50:46;;;;;;;7.90;4.03;;;;;;;17.24;100.00;101452.50;5047964;28;20270;-76
2022/06/15 06:53:13;;;;;;;6.17;2.80;;;;;;;17.41;100.00;101426.13;5065967;28;20025;-76
2022/06/15 06:55:39;;;;;;;7.22;3.72;;;;;;;17.30;100.00;101341.09;5066834;28;20077;-76
2022/06/15 06:58:05;;;;;;;8.75;3.67;;;;;;;17.52;100.00;101331.13;5064932;28;20067;-76
2022/06/15 07:00:33;;;;;;;9.52;3.85;;;;;;;17.52;100.00;101308.72;5049082;28;20048;-77
2022/06/15 07:03:01;;;;;;;7.63;3.42;;;;;;;17.89;100.00;101321.09;5065592;28;20024;-78
2022/06/15 07:05:26;;;;;;;8.50;2.92;;;;;;;18.05;100.00;101201.06;5065827;28;20021;-77
2022/06/15 07:07:52;;;;;;;11.93;3.42;;;;;;;18.63;100.00;101232.25;5065990;28;20032;-76
2022/06/15 07:10:18;;;;;;;6.10;2.80;;;;;;;19.05;100.00;101143.69;5049511;28;20843;-79
2022/06/15 07:12:43;;;;;;;8.47;2.47;;;;;;;18.82;100.00;101157.63;5065850;28;20338;-77
2022/06/15 07:15:11;;;;;;;8.37;2.40;;;;;;;19.32;100.00;101148.03;5065994;28;20259;-76
2022/06/15 07:17:38;;;;;;;9.90;2.95;;;;;;;18.84;100.00;101115.78;5065795;28;20043;-76
2022/06/15 07:20:03;;;;;;;;;;;;;;;18.30;100.00;101089.72;5066262;28;20534;-78
2022/06/15 07:22:29;;;;;;;7.35;3.78;;;;;;;18.40;100.00;101210.97;5047554;28;19916;-76
2022/06/15 07:24:56;;;;;;;7.30;2.83;;;;;;;19.52;100.00;101250.88;5048643;28;20017;-76
2022/06/15 07:27:22;;;;;;;7.97;3.70;;;;;;;19.50;100.00;101124.88;5034676;28;20032;-76
2022/06/15 07:29:47;;;;;;;;;;;;;;;19.18;100.00;101151.81;5049682;28;20017;-76
2022/06/15 07:32:14;;;;;;;;;;;;;;;19.37;100.00;101133.88;5055368;28;19920;-75
2022/06/15 07:34:40;;;;;;;;;;;;;;;19.45;92.54;101019.09;5048813;28;19915;-77
2022/06/15 07:37:05;;;;;;;6.75;3.35;;;;;;;19.80;95.19;101145.00;5065343;28;19912;-76
2022/06/15 07:39:31;;;;;;;8.47;2.83;;;;;;;20.13;84.62;100999.56;5065282;28;20022;-77
2022/06/15 07:41:57;;;;;;;6.63;2.60;;;;;;;20.38;77.25;100931.81;5048931;28;20036;-77
2022/06/15 07:44:25;;;;;;;6.88;2.78;;;;;;;20.71;75.35;100949.66;5051075;28;20674;-77
2022/06/15 07:49:54;;;;;;;4.10;2.35;;;;;;;20.94;74.26;100976.97;5067303;28;20512;-76
2022/06/15 07:49:54;;;;;;;5.97;2.55;;;;;;;20.53;73.63;100886.16;5065062;28;20043;-77
2022/06/15 07:52:21;;;;;;;8.45;2.50;;;;;;;21.17;74.35;101051.47;5064784;28;20451;-76
2022/06/15 07:54:48;;;;;;;4.65;2.75;;;;;;;21.60;66.95;100931.06;5066261;28;20099;-75
2022/06/15 07:57:15;;;;;;;4.97;2.47;;;;;;;21.50;70.30;101013.91;5065805;28;20036;-76
2022/06/15 07:59:40;;;;;;;;;;;;;;;21.39;66.80;100919.59;5048546;28;20024;-77
2022/06/15 08:02:07;;;;;;;4.10;1.80;;;;;;;20.61;67.24;100820.00;5065621;28;19973;-77
2022/06/15 08:04:32;;;;;;;6.50;2.35;;;;;;;20.32;65.77;100779.00;5066252;28;20032;-78
2022/06/15 08:06:58;;;;;;;5.03;1.77;;;;;;;20.35;62.55;100748.72;5064721;28;20041;-78
2022/06/15 08:09:23;;;;;;;3.13;1.73;;;;;;;20.60;64.71;100850.88;5048034;28;20116;-78
2022/06/15 08:14:36;;;;;;;2.42;1.80;;;;;;;20.82;57.33;100658.63;5080396;28;20099;-78
2022/06/15 08:17:04;;;;;;;8.57;2.28;;;;;;;20.76;58.14;100711.91;5064425;28;20096;-78
2022/06/15 08:19:33;;;;;;;4.10;2.15;;;;;;;21.42;59.20;100897.47;5063941;28;20035;-78
2022/06/15 08:21:58;;;;;;;4.57;2.10;;;;;;;21.54;55.97;100758.13;5065638;28;20016;-78
2022/06/15 08:24:24;;;;;;;4.68;2.22;;;;;;;21.11;54.22;100628.91;5064326;28;20044;-78
2022/06/15 08:26:50;;;;;;;4.00;1.67;;;;;;;20.97;55.94;100707.81;5064859;28;20024;-78
2022/06/15 08:29:16;;;;;;;4.68;2.10;;;;;;;20.57;55.45;100599.91;5065649;28;20473;-77
2022/06/15 08:31:42;;;;;;;;;;;;;;;21.07;59.02;100876.41;5059206;28;20073;-78
2022/06/15 08:34:08;;;;;;;4.40;2.00;;;;;;;21.26;55.51;100729.75;5064269;28;19916;-78
2022/06/15 08:36:35;;;;;;;5.57;2.40;;;;;;;20.73;55.14;100668.13;5047685;28;20535;-78
2022/06/15 08:39:01;;;;;;;3.47;2.08;;;;;;;20.13;57.96;100630.97;5065687;28;20090;-78
2022/06/15 08:41:35;;;;;;;8.95;3.63;;;;;;;20.17;56.69;100640.31;5063752;28;20017;-78
2022/06/15 08:44:28;;;;;;;5.60;2.83;;;;;;;20.85;58.54;100856.22;5065388;28;20115;-78
2022/06/15 08:47:18;;;;;;;5.25;2.50;;;;;;;21.24;50.77;100596.94;5072931;28;20045;-78
2022/06/15 08:49:53;;;;;;;6.57;3.03;;;;;;;22.43;48.82;100725.31;5059465;28;20029;-78
2022/06/15 08:52:29;;;;;;;3.85;2.00;;;;;;;22.52;48.59;100683.06;5063728;28;20050;-77
2022/06/15 08:54:59;;;;;;;6.03;2.63;;;;;;;22.85;47.96;100708.69;5065279;28;20105;-76
2022/06/15 08:57:36;;;;;;;5.25;2.40;;;;;;;22.59;45.58;100591.22;5063248;28;20566;-76
2022/06/15 09:00:32;;;;;;;3.55;2.00;;;;;;;22.09;49.73;100765.91;5065036;28;20028;-78
2022/06/15 09:03:00;;;;;;;7.93;2.78;;;;;;;20.81;50.60;100560.13;5060215;28;20048;-78
2022/06/15 09:05:39;;;;;;;4.72;2.03;;;;;;;22.00;51.32;100870.66;5057356;28;20052;-78
2022/06/15 09:08:18;;;;;;;4.47;2.15;;;;;;;23.11;48.17;100920.50;5063712;28;20481;-78
2022/06/15 09:10:55;;;;;;;8.10;2.40;;;;;;;23.36;45.44;100743.09;5053899;28;20090;-78
2022/06/15 09:13:36;;;;;;;4.38;2.50;;;;;;;22.43;48.17;100714.44;5062893;28;20043;-78
2022/06/15 09:16:15;;;;;;;6.82;2.20;;;;;;;23.46;46.90;100877.81;5065292;28;20036;-78
2022/06/15 09:18:46;;;;;;;4.93;2.40;;;;;;;23.37;46.08;100772.00;5064204;28;20032;-77
2022/06/15 09:21:30;;;;;;;6.32;2.33;;;;;;;23.95;46.23;100884.44;5046419;28;20039;-77
2022/06/15 09:24:02;;;;;;;6.82;2.53;;;;;;;24.17;44.10;100774.59;5060154;28;20052;-76
2022/06/15 09:26:56;;;;;;;7.03;2.90;;;;;;;23.49;45.07;100687.47;5063649;28;20024;-76
2022/06/15 09:29:39;;;;;;;5.10;2.80;;;;;;;24.02;45.81;100838.75;5059787;28;20053;-76
2022/06/15 09:32:18;;;;;;;3.78;2.40;;;;;;;24.07;45.17;100834.41;5046754;28;20571;-76
2022/06/15 09:34:51;;;;;;;6.85;3.13;;;;;;;23.55;45.25;100645.59;5057792;28;20083;-76
2022/06/15 09:37:20;;;;;;;5.35;2.20;;;;;;;23.17;46.40;100693.50;5063408;28;20036;-76
2022/06/15 09:39:46;;;;;;;6.15;2.90;;;;;;;22.03;47.29;100533.94;5063254;28;20024;-76
2022/06/15 09:42:23;;;;;;;5.70;2.33;;;;;;;21.15;49.01;100508.78;5064510;28;20405;-76
2022/06/15 09:45:17;;;;;;;7.68;2.17;;;;;;;20.97;51.51;100642.69;5059096;28;20056;-76
2022/06/15 09:47:52;;;;;;;6.95;2.47;;;;;;;19.93;51.59;100455.97;5055328;28;20033;-76
2022/06/15 09:50:51;;;;;;;4.50;2.35;;;;;;;19.29;55.09;100552.13;5035927;28;20033;-76
2022/06/15 09:53:39;;;;;;;6.38;2.08;;;;;;;19.69;52.66;100573.38;5067019;28;20478;-76
2022/06/15 09:56:08;;;;;;;5.60;2.15;;;;;;;20.26;56.14;100857.69;5068522;28;20024;-76
2022/06/15 09:58:51;;;;;;;3.35;2.10;;;;;;;21.20;52.56;100833.84;5068402;28;20024;-76
2022/06/15 10:01:18;;;;;;;9.18;2.58;;;;;;;21.86;50.21;100851.84;5060084;28;20032;-76
2022/06/15 10:03:47;;;;;;;3.42;2.20;;;;;;;22.76;45.56;100706.38;5066925;28;20374;-76
2022/06/15 10:06:17;;;;;;;3.50;2.15;;;;;;;22.86;45.04;100707.63;5066844;28;20424;-76
2022/06/15 10:08:44;;;;;;;6.25;2.75;;;;;;;23.84;43.19;100751.78;5060875;28;20047;-76
2022/06/15 10:11:17;;;;;;;3.38;2.33;;;;;;;23.81;43.32;100757.69;5067851;28;20526;-76
2022/06/15 10:13:43;;;;;;;7.00;2.40;;;;;;;24.15;41.11;100646.66;5066707;28;20041;-76
2022/06/15 10:16:30;;;;;;;3.97;2.17;;;;;;;24.05;43.96;100831.16;5067896;28;20103;-76
2022/06/15 10:18:58;;;;;;;4.63;2.42;;;;;;;23.53;43.73;100712.28;5061713;28;20105;-76
2022/06/15 10:21:30;;;;;;;3.17;2.50;;;;;;;24.89;42.87;100953.78;5064709;28;20028;-76
2022/06/15 10:23:59;;;;;;;6.10;2.67;;;;;;;23.79;41.58;100500.94;5066514;28;20024;-76
2022/06/15 10:26:46;;;;;;;11.25;2.70;;;;;;;22.70;44.29;100535.91;5066894;28;20033;-76
2022/06/15 10:29:14;;;;;;;6.88;2.33;;;;;;;24.79;43.08;100879.91;5066037;28;20047;-76
2022/06/15 10:31:41;;;;;;;3.10;1.80;;;;;;;24.76;42.57;100826.66;5066089;28;20021;-76
2022/06/15 10:34:24;;;;;;;6.00;2.60;;;;;;;24.27;41.12;100586.50;5067326;28;20028;-76
2022/06/15 10:36:55;;;;;;;6.32;2.38;;;;;;;23.90;41.83;100568.09;5062570;28;20102;-76
2022/06/15 10:39:25;;;;;;;5.30;2.33;;;;;;;23.94;42.73;100651.03;5065940;28;20478;-77
2022/06/15 10:41:51;;;;;;;3.83;2.35;;;;;;;24.29;43.83;100807.22;5066256;28;20027;-76
2022/06/15 10:44:31;;;;;;;3.08;2.10;;;;;;;23.66;41.20;100431.25;5066069;28;20033;-76
2022/06/15 10:47:19;;;;;;;6.22;2.30;;;;;;;24.73;43.82;100903.63;5062030;28;20051;-76
2022/06/15 10:49:51;;;;;;;5.55;2.05;;;;;;;24.53;41.78;100652.25;5040078;28;20032;-76
2022/06/15 10:52:29;;;;;;;2.17;1.95;;;;;;;23.70;41.92;100467.00;5079496;28;20037;-76
2022/06/15 11:04:06;;;;;;;4.85;2.80;;;;;;;22.85;43.97;100539.94;5062266;28;20082;-76
2022/06/15 11:06:41;;;;;;;5.27;2.57;;;;;;;24.43;41.57;100715.72;5049382;28;20016;-76
2022/06/15 11:09:21;;;;;;;4.13;2.60;;;;;;;23.59;40.68;100406.13;5065809;28;20350;-76
2022/06/15 11:11:47;;;;;;;4.72;2.10;;;;;;;24.55;40.14;100607.25;5059403;28;20032;-77
2022/06/15 11:14:21;;;;;;;6.32;2.20;;;;;;;24.60;40.91;100661.06;5065706;28;20028;-76
2022/06/15 11:19:50;;;;;;;3.10;2.35;;;;;;;24.32;40.91;100567.44;5065504;28;20028;-76
2022/06/15 11:22:18;;;;;;;7.93;2.60;;;;;;;24.77;40.92;100614.53;5065414;28;20471;-76
2022/06/15 11:25:02;;;;;;;5.03;1.80;;;;;;;25.34;41.29;100782.50;5058540;28;20033;-76
2022/06/15 11:27:38;;;;;;;4.53;2.53;;;;;;;24.54;40.30;100452.00;5066547;28;20037;-76
2022/06/15 11:30:10;;;;;;;5.40;2.40;;;;;;;24.55;39.78;100440.78;5066470;28;20079;-76
2022/06/15 11:32:58;;;;;;;6.95;2.72;;;;;;;25.59;39.68;100718.97;5066502;28;20056;-76
2022/06/15 11:35:39;;;;;;;5.20;2.40;;;;;;;25.93;39.20;100664.81;5066318;28;20075;-76
2022/06/15 11:38:20;;;;;;;5.10;2.10;;;;;;;26.31;40.57;100830.50;5066528;28;20436;-76
2022/06/15 11:40:54;;;;;;;4.15;2.10;;;;;;;24.89;39.60;100442.34;5059470;28;20473;-77
2022/06/15 11:43:31;;;;;;;2.90;1.92;;;;;;;25.45;39.82;100636.63;5064989;28;20064;-77
2022/06/15 11:46:00;;;;;;;6.75;2.50;;;;;;;25.33;38.20;100414.69;5049642;28;20036;-77
2022/06/15 11:48:34;;;;;;;5.75;2.30;;;;;;;25.51;38.23;100447.00;5049239;28;20109;-77
2022/06/15 11:51:19;;;;;;;4.13;1.98;;;;;;;24.56;39.88;100401.50;5065486;28;20024;-78
2022/06/15 11:54:08;;;;;;;;;;;;;;;25.08;40.15;100549.25;5059976;28;20089;-77
2022/06/15 11:56:45;;;;;;;4.88;1.80;;;;;;;25.90;39.37;100670.81;5064602;28;19955;-77
2022/06/15 11:59:20;;;;;;;4.32;1.67;;;;;;;26.06;37.63;100489.25;5065785;28;20127;-77
2022/06/15 12:01:52;;;;;;;;;;;;;;;25.09;37.01;100199.38;5060010;28;20052;-77